METAR Formatted Surface Weather Observation
Issued by NWS

Home | Current Version | Previous Version | Text Only | Print | Product List | Glossary On
Versions: 1 2 3 4 5 6 7 8 9 10 11 12 13 14 15 16 17 18
279
SAUS44 KBMX 301354
MTRHEY
METAR KHEY 301353Z AUTO 12003KT 10SM CLR 18/12 A3009 RMK AO2 SLP077
T01830122



USA.gov is the U.S. government's official web portal to all federal, state and local government web resources and services.